createdAt,value
2023-03-01T00:01:24.412Z,4.12
2023-03-01T00:03:53.155Z,4.07
2023-03-01T00:06:22.151Z,4.09
2023-03-01T00:08:50.715Z,4.00
2023-03-01T00:11:21.275Z,3.99
2023-03-01T00:13:52.980Z,4.07
2023-03-01T00:16:22.851Z,3.95
2023-03-01T00:18:51.613Z,4.00
2023-03-01T00:21:23.882Z,3.99
2023-03-01T00:23:52.468Z,4.00
2023-03-01T00:26:22.018Z,4.03
2023-03-01T00:28:51.711Z,3.99
2023-03-01T00:31:21.728Z,4.04
2023-03-01T00:33:49.750Z,4.05
2023-03-01T00:36:18.295Z,3.99
2023-03-01T00:38:47.635Z,4.01
2023-03-01T00:41:17.565Z,4.02
2023-03-01T00:43:46.325Z,4.07
2023-03-01T00:46:17.992Z,4.00
2023-03-01T00:48:46.470Z,3.99
2023-03-01T00:51:17.771Z,3.98
2023-03-01T00:53:46.617Z,4.06
2023-03-01T00:56:16.144Z,4.15
2023-03-01T00:58:44.272Z,4.17
2023-03-01T01:01:19.084Z,4.17
2023-03-01T01:03:51.633Z,4.07
2023-03-01T01:06:21.378Z,4.00
2023-03-01T01:08:49.712Z,4.00
2023-03-01T01:11:18.169Z,3.96
2023-03-01T01:13:47.349Z,3.86
2023-03-01T01:16:16.244Z,3.77
2023-03-01T01:18:44.303Z,3.80
2023-03-01T01:21:15.154Z,3.82
2023-03-01T01:23:45.889Z,3.85
2023-03-01T01:26:15.893Z,3.82
2023-03-01T01:28:43.888Z,3.82
2023-03-01T01:31:12.183Z,3.85
2023-03-01T01:33:40.801Z,3.91
2023-03-01T01:36:09.687Z,3.89
2023-03-01T01:38:40.696Z,3.91
2023-03-01T01:41:09.406Z,3.98
2023-03-01T01:43:40.103Z,4.01
2023-03-01T01:46:15.420Z,4.00
2023-03-01T01:48:47.247Z,4.03
2023-03-01T01:51:20.194Z,3.98
2023-03-01T01:53:53.372Z,4.12
2023-03-01T01:56:22.663Z,4.15
2023-03-01T01:58:51.305Z,4.19
2023-03-01T02:01:38.765Z,4.21
2023-03-01T02:04:07.786Z,4.29
2023-03-01T02:06:45.008Z,4.30
2023-03-01T02:09:18.571Z,4.26
2023-03-01T02:12:10.257Z,4.26
2023-03-01T02:14:38.230Z,4.23
2023-03-01T02:17:06.149Z,4.22
2023-03-01T02:19:52.099Z,4.34
2023-03-01T02:22:28.080Z,4.26
2023-03-01T02:25:08.398Z,4.33
2023-03-01T02:27:47.654Z,4.24
2023-03-01T02:30:17.634Z,4.24
2023-03-01T02:33:07.489Z,4.29
2023-03-01T02:35:40.381Z,4.29
2023-03-01T02:38:12.146Z,4.28
2023-03-01T02:40:41.609Z,4.26
2023-03-01T02:43:14.354Z,4.28
2023-03-01T02:45:51.668Z,4.20
2023-03-01T02:48:22.346Z,4.18
2023-03-01T02:51:05.534Z,4.27
2023-03-01T02:53:41.581Z,4.33
2023-03-01T02:56:14.049Z,4.39
2023-03-01T02:58:52.452Z,4.36
2023-03-01T03:01:34.407Z,4.31
2023-03-01T03:04:05.417Z,4.34
2023-03-01T03:06:36.468Z,4.27
2023-03-01T03:09:05.661Z,4.30
2023-03-01T03:11:34.200Z,4.33
2023-03-01T03:14:02.643Z,4.35
2023-03-01T03:16:50.804Z,4.39
2023-03-01T03:19:23.129Z,4.52
2023-03-01T03:21:50.992Z,4.52
2023-03-01T03:24:19.322Z,4.52
2023-03-01T03:26:47.800Z,4.55
2023-03-01T03:29:15.778Z,4.63
2023-03-01T03:31:47.870Z,4.67
2023-03-01T03:34:19.118Z,4.76
2023-03-01T03:36:47.260Z,4.87
2023-03-01T03:39:15.441Z,4.97
2023-03-01T03:41:43.678Z,5.01
2023-03-01T03:44:11.532Z,5.10
2023-03-01T03:46:42.480Z,5.17
2023-03-01T03:49:11.886Z,5.07
2023-03-01T03:51:39.810Z,5.07
2023-03-01T03:54:07.805Z,5.05
2023-03-01T03:56:36.119Z,5.14
2023-03-01T03:59:04.162Z,5.19
2023-03-01T04:01:32.470Z,5.13
2023-03-01T04:04:05.118Z,5.10
2023-03-01T04:06:41.573Z,5.15
2023-03-01T04:09:09.535Z,5.18
2023-03-01T04:11:38.541Z,5.20
2023-03-01T04:14:08.774Z,5.21
2023-03-01T04:16:36.658Z,5.27
2023-03-01T04:19:04.616Z,5.28
2023-03-01T04:21:37.282Z,5.27
2023-03-01T04:24:05.929Z,5.32
2023-03-01T04:26:34.277Z,5.36
2023-03-01T04:29:02.301Z,5.38
2023-03-01T04:31:32.373Z,5.44
2023-03-01T04:34:06.042Z,5.44
2023-03-01T04:36:39.022Z,5.43
2023-03-01T04:39:13.426Z,5.44
2023-03-01T04:41:41.991Z,5.52
2023-03-01T04:44:13.687Z,5.53
2023-03-01T04:46:41.945Z,5.56
2023-03-01T04:49:09.903Z,5.59
2023-03-01T04:51:44.244Z,5.60
2023-03-01T04:54:12.239Z,5.59
2023-03-01T04:56:40.160Z,5.67
2023-03-01T04:59:10.563Z,5.69
2023-03-01T05:01:38.974Z,5.69
2023-03-01T05:04:08.333Z,5.74
2023-03-01T05:06:38.210Z,5.75
2023-03-01T05:09:07.879Z,5.66
2023-03-01T05:11:49.142Z,5.70
2023-03-01T05:14:17.108Z,5.75
2023-03-01T05:16:45.280Z,5.77
2023-03-01T05:19:16.167Z,5.77
2023-03-01T05:21:59.700Z,5.79
2023-03-01T05:24:30.193Z,5.85
2023-03-01T05:26:59.537Z,5.79
2023-03-01T05:29:29.363Z,5.85
2023-03-01T05:31:59.319Z,5.88
2023-03-01T05:34:27.897Z,5.89
2023-03-01T05:36:56.608Z,5.92
2023-03-01T05:39:26.839Z,5.91
2023-03-01T05:41:57.324Z,5.94
2023-03-01T05:44:26.331Z,5.87
2023-03-01T05:46:54.818Z,5.90
2023-03-01T05:49:25.028Z,5.92
2023-03-01T05:51:55.157Z,5.93
2023-03-01T05:54:23.845Z,5.93
2023-03-01T05:56:51.807Z,5.90
2023-03-01T05:59:21.105Z,5.89
2023-03-01T06:01:49.023Z,5.86
2023-03-01T06:04:17.078Z,5.82
2023-03-01T06:06:45.089Z,5.79
2023-03-01T06:09:13.011Z,5.75
2023-03-01T06:11:41.151Z,5.72
2023-03-01T06:14:11.682Z,5.75
2023-03-01T06:16:41.306Z,5.76
2023-03-01T06:19:09.149Z,5.78
2023-03-01T06:21:37.539Z,5.80
2023-03-01T06:24:08.279Z,5.76
2023-03-01T06:26:36.150Z,5.75
2023-03-01T06:29:04.298Z,5.78
2023-03-01T06:31:32.367Z,5.70
2023-03-01T06:34:01.884Z,5.84
2023-03-01T06:36:30.247Z,5.88
2023-03-01T06:38:58.220Z,5.91
2023-03-01T06:41:26.796Z,5.93
2023-03-01T06:43:55.517Z,6.03
2023-03-01T06:46:23.438Z,6.05
2023-03-01T06:48:53.370Z,6.10
2023-03-01T06:51:22.765Z,6.18
2023-03-01T06:53:51.817Z,6.20
2023-03-01T06:56:19.673Z,6.28
2023-03-01T06:58:47.812Z,6.32
2023-03-01T07:01:15.734Z,6.22
2023-03-01T07:03:45.323Z,6.33
2023-03-01T07:06:13.217Z,6.37
2023-03-01T07:08:42.464Z,6.44
2023-03-01T07:11:10.438Z,6.43
2023-03-01T07:13:38.418Z,6.46
2023-03-01T07:16:06.920Z,6.55
2023-03-01T07:18:34.914Z,6.57
2023-03-01T07:21:06.643Z,6.54
2023-03-01T07:23:35.182Z,6.49
2023-03-01T07:26:07.522Z,6.50
2023-03-01T07:28:37.077Z,6.62
2023-03-01T07:31:05.811Z,6.69
2023-03-01T07:33:33.781Z,6.65
2023-03-01T07:36:03.200Z,6.80
2023-03-01T07:38:31.858Z,6.89
2023-03-01T07:41:01.148Z,7.03
2023-03-01T07:43:30.951Z,7.11
2023-03-01T07:46:00.909Z,7.15
2023-03-01T07:48:28.908Z,7.11
2023-03-01T07:50:56.944Z,7.16
2023-03-01T07:53:25.265Z,7.19
2023-03-01T07:56:02.878Z,7.39
2023-03-01T07:58:32.278Z,7.40
2023-03-01T08:01:04.012Z,7.44
2023-03-01T08:03:32.169Z,7.42
2023-03-01T08:06:02.018Z,7.37
2023-03-01T08:08:31.069Z,7.44
2023-03-01T08:10:59.641Z,7.57
2023-03-01T08:13:28.021Z,7.60
2023-03-01T08:16:02.502Z,7.71
2023-03-01T08:18:30.430Z,7.73
2023-03-01T08:21:03.035Z,7.71
2023-03-01T08:23:30.997Z,7.76
2023-03-01T08:26:07.504Z,7.88
2023-03-01T08:28:35.608Z,7.92
2023-03-01T08:31:05.472Z,8.03
2023-03-01T08:33:33.318Z,8.12
2023-03-01T08:36:08.585Z,8.22
2023-03-01T08:38:36.823Z,8.36
2023-03-01T08:41:05.890Z,8.40
2023-03-01T08:43:33.794Z,8.47
2023-03-01T08:46:02.018Z,8.45
2023-03-01T08:48:31.966Z,8.60
2023-03-01T08:51:09.494Z,8.54
2023-03-01T08:53:37.461Z,8.63
2023-03-01T08:56:06.739Z,8.71
2023-03-01T08:58:34.975Z,8.72
2023-03-01T09:01:03.137Z,8.78
2023-03-01T09:03:32.651Z,8.80
2023-03-01T09:06:03.154Z,8.74
2023-03-01T09:08:33.356Z,8.93
2023-03-01T09:11:03.572Z,8.99
2023-03-01T09:13:33.052Z,9.07
2023-03-01T09:16:02.666Z,8.62
2023-03-01T09:18:32.575Z,8.69
2023-03-01T09:21:08.411Z,8.90
2023-03-01T09:23:39.825Z,8.99
2023-03-01T09:26:09.439Z,9.09
2023-03-01T09:28:37.875Z,9.17
2023-03-01T09:31:06.732Z,9.21
2023-03-01T09:33:36.209Z,9.26
2023-03-01T09:36:06.360Z,9.40
2023-03-01T09:38:34.318Z,9.33
2023-03-01T09:41:02.718Z,9.44
2023-03-01T09:46:12.382Z,9.53
2023-03-01T09:48:48.627Z,9.51
2023-03-01T09:51:20.713Z,9.52
2023-03-01T09:53:48.669Z,9.64
2023-03-01T09:56:23.420Z,9.68
2023-03-01T09:58:58.472Z,9.72
2023-03-01T10:01:33.945Z,9.66
2023-03-01T10:04:16.386Z,9.51
2023-03-01T10:06:53.000Z,9.15
2023-03-01T10:09:22.475Z,8.95
2023-03-01T10:11:54.831Z,8.86
2023-03-01T10:14:35.240Z,8.76
2023-03-01T10:17:06.830Z,8.75
2023-03-01T10:19:43.264Z,8.68
2023-03-01T10:22:17.255Z,8.72
2023-03-01T10:24:48.554Z,8.69
2023-03-01T10:27:24.403Z,8.76
2023-03-01T10:30:08.686Z,8.79
2023-03-01T10:32:36.928Z,8.73
2023-03-01T10:35:18.890Z,8.79
2023-03-01T10:38:05.934Z,8.67
2023-03-01T10:40:36.110Z,8.77
2023-03-01T10:43:07.110Z,8.75
2023-03-01T10:45:38.277Z,8.77
2023-03-01T10:48:15.763Z,8.91
2023-03-01T10:50:50.651Z,8.90
2023-03-01T10:53:30.416Z,8.98
2023-03-01T10:56:07.282Z,8.78
2023-03-01T10:58:37.784Z,8.76
2023-03-01T11:01:08.230Z,8.71
2023-03-01T11:03:39.420Z,8.72
2023-03-01T11:06:24.022Z,8.70
2023-03-01T11:08:53.026Z,8.67
2023-03-01T11:11:33.775Z,8.68
2023-03-01T11:14:23.567Z,8.59
2023-03-01T11:17:04.306Z,8.64
2023-03-01T11:19:35.951Z,8.58
2023-03-01T11:22:10.196Z,8.59
2023-03-01T11:24:43.820Z,8.69
2023-03-01T11:27:21.299Z,8.79
2023-03-01T11:29:56.105Z,8.77
2023-03-01T11:32:27.485Z,8.81
2023-03-01T11:35:01.327Z,8.86
2023-03-01T11:37:40.730Z,8.92
2023-03-01T11:40:16.059Z,8.95
2023-03-01T11:43:13.649Z,9.13
2023-03-01T11:45:53.848Z,8.92
2023-03-01T11:48:49.771Z,9.09
2023-03-01T11:51:26.408Z,9.16
2023-03-01T11:54:23.608Z,9.10
2023-03-01T11:56:57.490Z,9.14
2023-03-01T12:00:01.523Z,9.18
2023-03-01T12:03:05.970Z,9.14
2023-03-01T12:06:18.515Z,9.23
2023-03-01T12:09:04.961Z,9.20
2023-03-01T12:11:47.872Z,9.33
2023-03-01T12:14:33.041Z,9.39
2023-03-01T12:17:20.396Z,9.45
2023-03-01T12:20:15.688Z,9.50
2023-03-01T12:23:14.741Z,9.47
2023-03-01T12:25:53.006Z,9.36
2023-03-01T12:28:41.038Z,9.52
2023-03-01T12:31:53.871Z,9.59
2023-03-01T12:34:38.072Z,9.65
2023-03-01T12:37:23.767Z,9.64
2023-03-01T12:40:13.734Z,9.66
2023-03-01T12:42:53.004Z,9.69
2023-03-01T12:45:43.728Z,9.79
2023-03-01T12:48:25.632Z,9.92
2023-03-01T12:50:55.396Z,10.09
2023-03-01T12:53:27.714Z,10.17
2023-03-01T12:55:58.753Z,10.22
2023-03-01T12:58:43.500Z,10.24
2023-03-01T13:01:24.716Z,10.25
2023-03-01T13:04:19.808Z,10.19
2023-03-01T13:07:01.047Z,10.28
2023-03-01T13:09:37.167Z,10.28
2023-03-01T13:12:13.029Z,10.38
2023-03-01T13:14:48.719Z,10.31
2023-03-01T13:17:34.704Z,10.33
2023-03-01T13:20:03.056Z,10.25
2023-03-01T13:22:39.751Z,10.31
2023-03-01T13:25:21.695Z,10.37
2023-03-01T13:27:50.452Z,10.36
2023-03-01T13:30:44.806Z,10.39
2023-03-01T13:33:47.333Z,10.31
2023-03-01T13:36:50.337Z,10.37
2023-03-01T13:39:35.929Z,10.38
2023-03-01T13:42:04.321Z,10.44
2023-03-01T13:44:37.180Z,10.42
2023-03-01T13:47:19.571Z,10.43
2023-03-01T13:49:51.687Z,10.49
2023-03-01T13:52:45.445Z,10.56
2023-03-01T13:55:29.156Z,10.63
2023-03-01T13:57:59.818Z,10.44
2023-03-01T14:00:37.402Z,10.47
2023-03-01T14:03:13.010Z,10.45
2023-03-01T14:05:43.176Z,10.39
2023-03-01T14:08:25.718Z,10.37
2023-03-01T14:11:09.411Z,10.39
2023-03-01T14:13:52.256Z,10.30
2023-03-01T14:16:33.897Z,10.28
2023-03-01T14:19:30.940Z,10.19
2023-03-01T14:22:15.646Z,10.22
2023-03-01T14:24:51.030Z,10.28
2023-03-01T14:27:19.871Z,10.33
2023-03-01T14:29:57.492Z,10.36
2023-03-01T14:32:28.016Z,10.24
2023-03-01T14:34:58.869Z,10.16
2023-03-01T14:37:28.989Z,10.11
2023-03-01T14:39:58.348Z,10.20
2023-03-01T14:42:29.995Z,10.20
2023-03-01T14:44:59.726Z,10.15
2023-03-01T14:47:31.203Z,10.16
2023-03-01T14:50:04.765Z,10.04
2023-03-01T14:52:38.461Z,10.23
2023-03-01T14:55:15.722Z,10.49
2023-03-01T14:57:46.116Z,10.59
2023-03-01T15:00:20.901Z,10.56
2023-03-01T15:02:50.919Z,10.45
2023-03-01T15:05:28.224Z,10.33
2023-03-01T15:07:57.390Z,10.31
2023-03-01T15:10:27.159Z,10.21
2023-03-01T15:12:55.434Z,10.02
2023-03-01T15:15:33.336Z,10.11
2023-03-01T15:18:03.758Z,10.03
2023-03-01T15:20:37.388Z,9.97
2023-03-01T15:23:05.882Z,10.07
2023-03-01T15:25:35.202Z,10.05
2023-03-01T15:28:04.267Z,10.09
2023-03-01T15:30:38.552Z,9.94
2023-03-01T15:33:21.493Z,9.88
2023-03-01T15:35:55.047Z,9.90
2023-03-01T15:38:29.676Z,9.85
2023-03-01T15:40:58.738Z,9.77
2023-03-01T15:43:46.895Z,9.72
2023-03-01T15:46:26.153Z,9.69
2023-03-01T15:48:57.533Z,9.72
2023-03-01T15:51:33.099Z,9.74
2023-03-01T15:54:04.825Z,9.73
2023-03-01T15:56:33.044Z,9.60
2023-03-01T15:59:03.919Z,9.60
2023-03-01T16:01:35.281Z,9.52
2023-03-01T16:04:03.342Z,9.48
2023-03-01T16:06:33.370Z,9.39
2023-03-01T16:09:01.683Z,9.43
2023-03-01T16:11:29.610Z,9.35
2023-03-01T16:13:57.622Z,9.33
2023-03-01T16:16:25.830Z,9.31
2023-03-01T16:18:55.662Z,9.37
2023-03-01T16:21:25.785Z,9.26
2023-03-01T16:23:55.249Z,9.29
2023-03-01T16:26:23.225Z,9.23
2023-03-01T16:28:51.457Z,9.22
2023-03-01T16:31:21.614Z,9.18
2023-03-01T16:33:52.509Z,9.11
2023-03-01T16:36:56.769Z,9.08
2023-03-01T16:39:26.283Z,8.97
2023-03-01T16:41:54.707Z,8.96
2023-03-01T16:44:22.866Z,8.94
2023-03-01T16:46:58.024Z,8.85
2023-03-01T16:49:26.187Z,8.73
2023-03-01T16:51:56.228Z,8.63
2023-03-01T16:54:24.459Z,8.65
2023-03-01T16:56:54.176Z,8.54
2023-03-01T16:59:22.789Z,8.33
2023-03-01T17:01:53.490Z,8.32
2023-03-01T17:04:21.829Z,8.30
2023-03-01T17:06:49.981Z,8.31
2023-03-01T17:09:18.890Z,8.30
2023-03-01T17:11:47.282Z,8.17
2023-03-01T17:14:17.566Z,8.17
2023-03-01T17:16:46.523Z,8.09
2023-03-01T17:19:18.570Z,8.08
2023-03-01T17:21:47.053Z,7.98
2023-03-01T17:24:17.794Z,7.88
2023-03-01T17:26:45.910Z,7.77
2023-03-01T17:29:14.851Z,7.76
2023-03-01T17:31:46.822Z,7.57
2023-03-01T17:34:16.358Z,7.52
2023-03-01T17:36:46.895Z,7.44
2023-03-01T17:39:15.575Z,7.28
2023-03-01T17:41:44.206Z,7.16
2023-03-01T17:44:12.212Z,7.00
2023-03-01T17:46:46.697Z,6.85
2023-03-01T17:49:14.945Z,6.70
2023-03-01T17:51:43.027Z,6.67
2023-03-01T17:54:11.541Z,6.49
2023-03-01T17:56:41.548Z,6.38
2023-03-01T17:59:11.756Z,6.24
2023-03-01T18:01:44.012Z,6.05
2023-03-01T18:04:14.686Z,6.05
2023-03-01T18:06:47.896Z,5.94
2023-03-01T18:09:19.441Z,5.98
2023-03-01T18:11:50.263Z,5.90
2023-03-01T18:14:21.786Z,5.89
2023-03-01T18:16:55.589Z,5.95
2023-03-01T18:19:28.657Z,5.97
2023-03-01T18:21:58.018Z,5.93
2023-03-01T18:24:29.230Z,5.82
2023-03-01T18:26:58.776Z,5.77
2023-03-01T18:29:27.643Z,5.71
2023-03-01T18:31:56.425Z,5.60
2023-03-01T18:34:26.743Z,5.47
2023-03-01T18:37:08.842Z,5.39
2023-03-01T18:39:38.229Z,5.29
2023-03-01T18:42:34.678Z,5.30
2023-03-01T18:45:03.756Z,5.01
2023-03-01T18:47:32.172Z,4.93
2023-03-01T18:50:01.989Z,5.00
2023-03-01T18:52:30.328Z,4.97
2023-03-01T18:54:59.705Z,5.11
2023-03-01T18:57:28.380Z,4.91
2023-03-01T18:59:56.746Z,4.88
2023-03-01T19:02:25.451Z,4.96
2023-03-01T19:04:53.942Z,5.05
2023-03-01T19:07:24.144Z,5.10
2023-03-01T19:09:52.619Z,5.05
2023-03-01T19:12:21.753Z,4.99
2023-03-01T19:14:51.678Z,5.00
2023-03-01T19:17:22.832Z,5.00
2023-03-01T19:19:52.163Z,4.94
2023-03-01T19:22:21.224Z,4.83
2023-03-01T19:24:52.165Z,4.96
2023-03-01T19:27:20.932Z,5.09
2023-03-01T19:29:49.372Z,4.96
2023-03-01T19:32:18.025Z,4.94
2023-03-01T19:34:48.857Z,4.91
2023-03-01T19:37:18.027Z,4.90
2023-03-01T19:39:48.284Z,4.78
2023-03-01T19:42:23.926Z,4.89
2023-03-01T19:44:52.750Z,4.82
2023-03-01T19:47:21.496Z,4.90
2023-03-01T19:49:50.993Z,4.93
2023-03-01T19:52:19.516Z,4.90
2023-03-01T19:54:49.388Z,5.02
2023-03-01T19:57:20.646Z,5.05
2023-03-01T19:59:50.029Z,5.01
2023-03-01T20:02:18.516Z,5.14
2023-03-01T20:04:51.802Z,5.12
2023-03-01T20:07:21.547Z,5.21
2023-03-01T20:09:53.970Z,5.30
2023-03-01T20:12:31.096Z,5.35
2023-03-01T20:15:01.017Z,5.30
2023-03-01T20:17:30.773Z,5.27
2023-03-01T20:19:59.458Z,5.24
2023-03-01T20:22:27.914Z,5.33
2023-03-01T20:24:58.282Z,5.29
2023-03-01T20:27:28.380Z,5.36
2023-03-01T20:29:58.551Z,5.33
2023-03-01T20:32:27.503Z,5.28
2023-03-01T20:34:57.840Z,5.35
2023-03-01T20:37:26.526Z,5.44
2023-03-01T20:39:57.796Z,5.52
2023-03-01T20:42:27.742Z,5.29
2023-03-01T20:44:58.026Z,5.44
2023-03-01T20:47:26.818Z,5.43
2023-03-01T20:49:55.709Z,5.50
2023-03-01T20:52:24.470Z,5.58
2023-03-01T20:54:52.944Z,5.50
2023-03-01T20:57:24.768Z,5.53
2023-03-01T20:59:55.574Z,5.50
2023-03-01T21:02:27.047Z,5.44
2023-03-01T21:04:55.941Z,5.50
2023-03-01T21:07:25.389Z,5.74
2023-03-01T21:09:56.379Z,5.73
2023-03-01T21:12:28.341Z,5.38
2023-03-01T21:15:01.651Z,5.50
2023-03-01T21:17:36.208Z,5.59
2023-03-01T21:20:06.150Z,5.42
2023-03-01T21:22:35.790Z,5.61
2023-03-01T21:25:04.638Z,5.57
2023-03-01T21:27:38.364Z,5.35
2023-03-01T21:30:09.540Z,5.15
2023-03-01T21:32:38.252Z,5.38
2023-03-01T21:35:07.622Z,5.44
2023-03-01T21:37:36.058Z,5.28
2023-03-01T21:40:06.644Z,5.34
2023-03-01T21:42:39.341Z,5.25
2023-03-01T21:45:10.882Z,5.26
2023-03-01T21:47:43.516Z,5.07
2023-03-01T21:50:16.661Z,5.24
2023-03-01T21:52:47.467Z,5.41
2023-03-01T21:55:16.135Z,5.44
2023-03-01T21:57:45.092Z,5.47
2023-03-01T22:00:18.337Z,5.47
2023-03-01T22:02:47.042Z,5.23
2023-03-01T22:05:15.969Z,5.33
2023-03-01T22:07:48.772Z,5.17
2023-03-01T22:10:36.165Z,5.14
2023-03-01T22:13:05.521Z,5.12
2023-03-01T22:15:37.067Z,5.04
2023-03-01T22:18:07.179Z,5.10
2023-03-01T22:20:36.281Z,5.14
2023-03-01T22:23:06.132Z,5.03
2023-03-01T22:25:36.110Z,5.21
2023-03-01T22:28:05.430Z,5.18
2023-03-01T22:30:36.326Z,5.26
2023-03-01T22:33:08.683Z,5.30
2023-03-01T22:35:37.543Z,5.28
2023-03-01T22:38:06.579Z,5.01
2023-03-01T22:40:35.769Z,4.83
2023-03-01T22:43:05.456Z,4.95
2023-03-01T22:45:35.776Z,4.55
2023-03-01T22:48:05.438Z,4.36
2023-03-01T22:50:34.843Z,4.39
2023-03-01T22:53:03.670Z,4.64
2023-03-01T22:55:33.034Z,4.68
2023-03-01T22:58:01.592Z,4.91
2023-03-01T23:00:30.360Z,4.94
2023-03-01T23:03:03.138Z,5.04
2023-03-01T23:05:33.931Z,4.89
2023-03-01T23:08:03.290Z,4.71
2023-03-01T23:10:31.979Z,4.65
2023-03-01T23:13:01.019Z,4.72
2023-03-01T23:15:30.509Z,4.60
2023-03-01T23:18:03.775Z,4.52
2023-03-01T23:20:37.162Z,4.38
2023-03-01T23:23:06.386Z,4.36
2023-03-01T23:25:35.397Z,4.21
2023-03-01T23:28:05.664Z,4.14
2023-03-01T23:30:38.665Z,4.11
2023-03-01T23:33:08.881Z,4.08
2023-03-01T23:35:41.131Z,4.14
2023-03-01T23:38:10.493Z,4.19
2023-03-01T23:40:40.634Z,4.25
2023-03-01T23:43:09.491Z,4.26
2023-03-01T23:45:43.287Z,4.14
2023-03-01T23:48:14.822Z,4.11
2023-03-01T23:50:43.967Z,4.21
2023-03-01T23:53:14.922Z,4.15
2023-03-01T23:55:50.028Z,3.92
2023-03-01T23:58:20.329Z,3.92
